<?xml version="1.0" encoding="UTF-8" standalone="no" ?>
<gpx xmlns="http://www.topografix.com/GPX/1/1" xmlns:xsi="http://www.w3.org/2001/XMLSchema-instance" xsi:schemaLocation="http://www.topografix.com/GPX/1/1 http://www.topografix.com/GPX/1/1/gpx.xsd" version="1.1" creator="VisuGPX - https://www.visugpx.com">
  <metadata>
    <name>15008952-PAT CHAMROUSSE Gr3</name>
  </metadata>
  <trk>
    <name><![CDATA[15008952-PAT CHAMROUSSE Gr3]]></name>
    <trkseg>
      <trkpt lat="45.10456" lon="5.8771">
        <ele>1736</ele>
        <time>2022-06-22T17:16:40Z</time>
      </trkpt>
      <trkpt lat="45.10442" lon="5.87742">
        <ele>1738</ele>
        <time>2022-06-22T17:17:15Z</time>
      </trkpt>
      <trkpt lat="45.10367" lon="5.8789">
        <ele>1738</ele>
        <time>2022-06-22T17:20:07Z</time>
      </trkpt>
      <trkpt lat="45.10343" lon="5.87951">
        <ele>1735</ele>
        <time>2022-06-22T17:21:13Z</time>
      </trkpt>
      <trkpt lat="45.10337" lon="5.87973">
        <ele>1733</ele>
        <time>2022-06-22T17:21:35Z</time>
      </trkpt>
      <trkpt lat="45.10331" lon="5.87991">
        <ele>1732</ele>
        <time>2022-06-22T17:21:54Z</time>
      </trkpt>
      <trkpt lat="45.10324" lon="5.88001">
        <ele>1730</ele>
        <time>2022-06-22T17:22:07Z</time>
      </trkpt>
      <trkpt lat="45.10311" lon="5.88006">
        <ele>1727</ele>
        <time>2022-06-22T17:22:25Z</time>
      </trkpt>
      <trkpt lat="45.103" lon="5.88006">
        <ele>1724</ele>
        <time>2022-06-22T17:22:40Z</time>
      </trkpt>
      <trkpt lat="45.10297" lon="5.87981">
        <ele>1725</ele>
        <time>2022-06-22T17:23:04Z</time>
      </trkpt>
      <trkpt lat="45.10311" lon="5.87906">
        <ele>1727</ele>
        <time>2022-06-22T17:24:17Z</time>
      </trkpt>
      <trkpt lat="45.10322" lon="5.87882">
        <ele>1726</ele>
        <time>2022-06-22T17:24:44Z</time>
      </trkpt>
      <trkpt lat="45.1033" lon="5.87858">
        <ele>1725</ele>
        <time>2022-06-22T17:25:09Z</time>
      </trkpt>
      <trkpt lat="45.10337" lon="5.87831">
        <ele>1723</ele>
        <time>2022-06-22T17:25:36Z</time>
      </trkpt>
      <trkpt lat="45.10346" lon="5.87779">
        <ele>1719</ele>
        <time>2022-06-22T17:26:26Z</time>
      </trkpt>
      <trkpt lat="45.10352" lon="5.87725">
        <ele>1715</ele>
        <time>2022-06-22T17:27:18Z</time>
      </trkpt>
      <trkpt lat="45.10346" lon="5.87609">
        <ele>1707</ele>
        <time>2022-06-22T17:29:07Z</time>
      </trkpt>
      <trkpt lat="45.10344" lon="5.87587">
        <ele>1706</ele>
        <time>2022-06-22T17:29:28Z</time>
      </trkpt>
      <trkpt lat="45.10339" lon="5.87505">
        <ele>1700</ele>
        <time>2022-06-22T17:30:46Z</time>
      </trkpt>
      <trkpt lat="45.10337" lon="5.87503">
        <ele>1700</ele>
        <time>2022-06-22T17:30:49Z</time>
      </trkpt>
      <trkpt lat="45.10332" lon="5.87495">
        <ele>1698</ele>
        <time>2022-06-22T17:30:59Z</time>
      </trkpt>
      <trkpt lat="45.10319" lon="5.8749">
        <ele>1696</ele>
        <time>2022-06-22T17:31:17Z</time>
      </trkpt>
      <trkpt lat="45.1031" lon="5.8749">
        <ele>1695</ele>
        <time>2022-06-22T17:31:29Z</time>
      </trkpt>
      <trkpt lat="45.10274" lon="5.87516">
        <ele>1692</ele>
        <time>2022-06-22T17:32:23Z</time>
      </trkpt>
      <trkpt lat="45.10208" lon="5.87572">
        <ele>1690</ele>
        <time>2022-06-22T17:34:06Z</time>
      </trkpt>
      <trkpt lat="45.10186" lon="5.87608">
        <ele>1690</ele>
        <time>2022-06-22T17:34:50Z</time>
      </trkpt>
      <trkpt lat="45.10177" lon="5.87632">
        <ele>1689</ele>
        <time>2022-06-22T17:35:16Z</time>
      </trkpt>
      <trkpt lat="45.10154" lon="5.87729">
        <ele>1690</ele>
        <time>2022-06-22T17:36:52Z</time>
      </trkpt>
      <trkpt lat="45.10149" lon="5.87727">
        <ele>1689</ele>
        <time>2022-06-22T17:36:59Z</time>
      </trkpt>
      <trkpt lat="45.10145" lon="5.87726">
        <ele>1688</ele>
        <time>2022-06-22T17:37:05Z</time>
      </trkpt>
      <trkpt lat="45.10134" lon="5.87735">
        <ele>1687</ele>
        <time>2022-06-22T17:37:22Z</time>
      </trkpt>
      <trkpt lat="45.10124" lon="5.8773">
        <ele>1685</ele>
        <time>2022-06-22T17:37:36Z</time>
      </trkpt>
      <trkpt lat="45.10118" lon="5.87715">
        <ele>1683</ele>
        <time>2022-06-22T17:37:52Z</time>
      </trkpt>
      <trkpt lat="45.10096" lon="5.87706">
        <ele>1679</ele>
        <time>2022-06-22T17:38:23Z</time>
      </trkpt>
      <trkpt lat="45.10059" lon="5.87686">
        <ele>1673</ele>
        <time>2022-06-22T17:39:15Z</time>
      </trkpt>
      <trkpt lat="45.10049" lon="5.87682">
        <ele>1671</ele>
        <time>2022-06-22T17:39:29Z</time>
      </trkpt>
      <trkpt lat="45.10045" lon="5.87683">
        <ele>1671</ele>
        <time>2022-06-22T17:39:35Z</time>
      </trkpt>
      <trkpt lat="45.1004" lon="5.8768">
        <ele>1670</ele>
        <time>2022-06-22T17:39:42Z</time>
      </trkpt>
      <trkpt lat="45.10028" lon="5.87686">
        <ele>1668</ele>
        <time>2022-06-22T17:39:59Z</time>
      </trkpt>
      <trkpt lat="45.10016" lon="5.87699">
        <ele>1665</ele>
        <time>2022-06-22T17:40:19Z</time>
      </trkpt>
      <trkpt lat="45.10005" lon="5.8781">
        <ele>1652</ele>
        <time>2022-06-22T17:42:05Z</time>
      </trkpt>
      <trkpt lat="45.1" lon="5.8783">
        <ele>1648</ele>
        <time>2022-06-22T17:42:25Z</time>
      </trkpt>
      <trkpt lat="45.09993" lon="5.87841">
        <ele>1646</ele>
        <time>2022-06-22T17:42:39Z</time>
      </trkpt>
      <trkpt lat="45.09985" lon="5.87838">
        <ele>1644</ele>
        <time>2022-06-22T17:42:50Z</time>
      </trkpt>
      <trkpt lat="45.09972" lon="5.87823">
        <ele>1642</ele>
        <time>2022-06-22T17:43:12Z</time>
      </trkpt>
      <trkpt lat="45.09964" lon="5.87804">
        <ele>1642</ele>
        <time>2022-06-22T17:43:33Z</time>
      </trkpt>
      <trkpt lat="45.09958" lon="5.87798">
        <ele>1641</ele>
        <time>2022-06-22T17:43:43Z</time>
      </trkpt>
      <trkpt lat="45.09958" lon="5.87796">
        <ele>1641</ele>
        <time>2022-06-22T17:43:45Z</time>
      </trkpt>
      <trkpt lat="45.09948" lon="5.87806">
        <ele>1638</ele>
        <time>2022-06-22T17:44:01Z</time>
      </trkpt>
      <trkpt lat="45.09938" lon="5.87815">
        <ele>1635</ele>
        <time>2022-06-22T17:44:17Z</time>
      </trkpt>
      <trkpt lat="45.0989" lon="5.87982">
        <ele>1622</ele>
        <time>2022-06-22T17:47:07Z</time>
      </trkpt>
      <trkpt lat="45.09889" lon="5.87994">
        <ele>1621</ele>
        <time>2022-06-22T17:47:18Z</time>
      </trkpt>
      <trkpt lat="45.09896" lon="5.88027">
        <ele>1622</ele>
        <time>2022-06-22T17:47:50Z</time>
      </trkpt>
      <trkpt lat="45.0994" lon="5.88084">
        <ele>1628</ele>
        <time>2022-06-22T17:49:10Z</time>
      </trkpt>
      <trkpt lat="45.09993" lon="5.88147">
        <ele>1638</ele>
        <time>2022-06-22T17:50:42Z</time>
      </trkpt>
      <trkpt lat="45.10018" lon="5.88183">
        <ele>1643</ele>
        <time>2022-06-22T17:51:30Z</time>
      </trkpt>
      <trkpt lat="45.10026" lon="5.88208">
        <ele>1645</ele>
        <time>2022-06-22T17:51:56Z</time>
      </trkpt>
      <trkpt lat="45.10034" lon="5.88221">
        <ele>1646</ele>
        <time>2022-06-22T17:52:12Z</time>
      </trkpt>
      <trkpt lat="45.10069" lon="5.88273">
        <ele>1651</ele>
        <time>2022-06-22T17:53:20Z</time>
      </trkpt>
      <trkpt lat="45.10106" lon="5.88319">
        <ele>1656</ele>
        <time>2022-06-22T17:54:25Z</time>
      </trkpt>
      <trkpt lat="45.10112" lon="5.88336">
        <ele>1657</ele>
        <time>2022-06-22T17:54:43Z</time>
      </trkpt>
      <trkpt lat="45.10125" lon="5.8844">
        <ele>1654</ele>
        <time>2022-06-22T17:56:23Z</time>
      </trkpt>
      <trkpt lat="45.10127" lon="5.88466">
        <ele>1653</ele>
        <time>2022-06-22T17:56:47Z</time>
      </trkpt>
      <trkpt lat="45.10129" lon="5.88492">
        <ele>1653</ele>
        <time>2022-06-22T17:57:12Z</time>
      </trkpt>
      <trkpt lat="45.10127" lon="5.8857">
        <ele>1651</ele>
        <time>2022-06-22T17:58:26Z</time>
      </trkpt>
      <trkpt lat="45.10119" lon="5.8865">
        <ele>1650</ele>
        <time>2022-06-22T17:59:42Z</time>
      </trkpt>
      <trkpt lat="45.10133" lon="5.88724">
        <ele>1653</ele>
        <time>2022-06-22T18:00:54Z</time>
      </trkpt>
      <trkpt lat="45.10131" lon="5.88729">
        <ele>1653</ele>
        <time>2022-06-22T18:00:59Z</time>
      </trkpt>
      <trkpt lat="45.10127" lon="5.88738">
        <ele>1653</ele>
        <time>2022-06-22T18:01:09Z</time>
      </trkpt>
      <trkpt lat="45.10091" lon="5.88745">
        <ele>1651</ele>
        <time>2022-06-22T18:01:58Z</time>
      </trkpt>
      <trkpt lat="45.10083" lon="5.88743">
        <ele>1651</ele>
        <time>2022-06-22T18:02:09Z</time>
      </trkpt>
      <trkpt lat="45.1009" lon="5.88777">
        <ele>1653</ele>
        <time>2022-06-22T18:02:42Z</time>
      </trkpt>
      <trkpt lat="45.10095" lon="5.88788">
        <ele>1654</ele>
        <time>2022-06-22T18:02:54Z</time>
      </trkpt>
      <trkpt lat="45.10127" lon="5.88835">
        <ele>1656</ele>
        <time>2022-06-22T18:03:56Z</time>
      </trkpt>
      <trkpt lat="45.10155" lon="5.88869">
        <ele>1659</ele>
        <time>2022-06-22T18:04:45Z</time>
      </trkpt>
      <trkpt lat="45.10177" lon="5.88903">
        <ele>1663</ele>
        <time>2022-06-22T18:05:28Z</time>
      </trkpt>
      <trkpt lat="45.10184" lon="5.88916">
        <ele>1665</ele>
        <time>2022-06-22T18:05:44Z</time>
      </trkpt>
      <trkpt lat="45.10185" lon="5.88953">
        <ele>1671</ele>
        <time>2022-06-22T18:06:19Z</time>
      </trkpt>
      <trkpt lat="45.10191" lon="5.88965">
        <ele>1673</ele>
        <time>2022-06-22T18:06:33Z</time>
      </trkpt>
      <trkpt lat="45.10223" lon="5.88991">
        <ele>1674</ele>
        <time>2022-06-22T18:07:22Z</time>
      </trkpt>
      <trkpt lat="45.10235" lon="5.89007">
        <ele>1674</ele>
        <time>2022-06-22T18:07:44Z</time>
      </trkpt>
      <trkpt lat="45.10244" lon="5.89023">
        <ele>1676</ele>
        <time>2022-06-22T18:08:03Z</time>
      </trkpt>
      <trkpt lat="45.10252" lon="5.89047">
        <ele>1680</ele>
        <time>2022-06-22T18:08:28Z</time>
      </trkpt>
      <trkpt lat="45.10256" lon="5.89072">
        <ele>1686</ele>
        <time>2022-06-22T18:08:52Z</time>
      </trkpt>
      <trkpt lat="45.10273" lon="5.8914">
        <ele>1697</ele>
        <time>2022-06-22T18:10:00Z</time>
      </trkpt>
      <trkpt lat="45.10277" lon="5.89149">
        <ele>1698</ele>
        <time>2022-06-22T18:10:10Z</time>
      </trkpt>
      <trkpt lat="45.103" lon="5.89184">
        <ele>1702</ele>
        <time>2022-06-22T18:10:55Z</time>
      </trkpt>
      <trkpt lat="45.10313" lon="5.89201">
        <ele>1702</ele>
        <time>2022-06-22T18:11:19Z</time>
      </trkpt>
      <trkpt lat="45.1033" lon="5.89218">
        <ele>1702</ele>
        <time>2022-06-22T18:11:47Z</time>
      </trkpt>
      <trkpt lat="45.10335" lon="5.89226">
        <ele>1702</ele>
        <time>2022-06-22T18:11:57Z</time>
      </trkpt>
      <trkpt lat="45.10342" lon="5.89232">
        <ele>1703</ele>
        <time>2022-06-22T18:12:08Z</time>
      </trkpt>
      <trkpt lat="45.10355" lon="5.89234">
        <ele>1705</ele>
        <time>2022-06-22T18:12:25Z</time>
      </trkpt>
      <trkpt lat="45.10379" lon="5.89244">
        <ele>1708</ele>
        <time>2022-06-22T18:12:58Z</time>
      </trkpt>
      <trkpt lat="45.10388" lon="5.89248">
        <ele>1709</ele>
        <time>2022-06-22T18:13:11Z</time>
      </trkpt>
      <trkpt lat="45.10396" lon="5.89248">
        <ele>1710</ele>
        <time>2022-06-22T18:13:22Z</time>
      </trkpt>
      <trkpt lat="45.10412" lon="5.89243">
        <ele>1711</ele>
        <time>2022-06-22T18:13:44Z</time>
      </trkpt>
      <trkpt lat="45.10421" lon="5.89244">
        <ele>1712</ele>
        <time>2022-06-22T18:13:56Z</time>
      </trkpt>
      <trkpt lat="45.10433" lon="5.89249">
        <ele>1714</ele>
        <time>2022-06-22T18:14:12Z</time>
      </trkpt>
      <trkpt lat="45.10439" lon="5.89253">
        <ele>1715</ele>
        <time>2022-06-22T18:14:21Z</time>
      </trkpt>
      <trkpt lat="45.10482" lon="5.89305">
        <ele>1722</ele>
        <time>2022-06-22T18:15:37Z</time>
      </trkpt>
      <trkpt lat="45.10504" lon="5.89328">
        <ele>1723</ele>
        <time>2022-06-22T18:16:13Z</time>
      </trkpt>
      <trkpt lat="45.10511" lon="5.8933">
        <ele>1724</ele>
        <time>2022-06-22T18:16:23Z</time>
      </trkpt>
      <trkpt lat="45.10518" lon="5.89337">
        <ele>1726</ele>
        <time>2022-06-22T18:16:34Z</time>
      </trkpt>
      <trkpt lat="45.10529" lon="5.89358">
        <ele>1730</ele>
        <time>2022-06-22T18:16:59Z</time>
      </trkpt>
      <trkpt lat="45.10533" lon="5.89375">
        <ele>1733</ele>
        <time>2022-06-22T18:17:16Z</time>
      </trkpt>
      <trkpt lat="45.10537" lon="5.89377">
        <ele>1733</ele>
        <time>2022-06-22T18:17:21Z</time>
      </trkpt>
      <trkpt lat="45.10539" lon="5.89384">
        <ele>1735</ele>
        <time>2022-06-22T18:17:28Z</time>
      </trkpt>
      <trkpt lat="45.10543" lon="5.89389">
        <ele>1736</ele>
        <time>2022-06-22T18:17:35Z</time>
      </trkpt>
      <trkpt lat="45.10553" lon="5.89394">
        <ele>1737</ele>
        <time>2022-06-22T18:17:50Z</time>
      </trkpt>
      <trkpt lat="45.10557" lon="5.89419">
        <ele>1741</ele>
        <time>2022-06-22T18:18:14Z</time>
      </trkpt>
      <trkpt lat="45.10564" lon="5.89429">
        <ele>1743</ele>
        <time>2022-06-22T18:18:27Z</time>
      </trkpt>
      <trkpt lat="45.10572" lon="5.89447">
        <ele>1746</ele>
        <time>2022-06-22T18:18:47Z</time>
      </trkpt>
      <trkpt lat="45.10582" lon="5.89453">
        <ele>1747</ele>
        <time>2022-06-22T18:19:01Z</time>
      </trkpt>
      <trkpt lat="45.10589" lon="5.89464">
        <ele>1750</ele>
        <time>2022-06-22T18:19:15Z</time>
      </trkpt>
      <trkpt lat="45.10591" lon="5.89474">
        <ele>1752</ele>
        <time>2022-06-22T18:19:25Z</time>
      </trkpt>
      <trkpt lat="45.10598" lon="5.89479">
        <ele>1754</ele>
        <time>2022-06-22T18:19:36Z</time>
      </trkpt>
      <trkpt lat="45.10604" lon="5.8948">
        <ele>1755</ele>
        <time>2022-06-22T18:19:44Z</time>
      </trkpt>
      <trkpt lat="45.10605" lon="5.89486">
        <ele>1756</ele>
        <time>2022-06-22T18:19:50Z</time>
      </trkpt>
      <trkpt lat="45.10603" lon="5.89493">
        <ele>1757</ele>
        <time>2022-06-22T18:19:57Z</time>
      </trkpt>
      <trkpt lat="45.1061" lon="5.895">
        <ele>1759</ele>
        <time>2022-06-22T18:20:08Z</time>
      </trkpt>
      <trkpt lat="45.10623" lon="5.89502">
        <ele>1762</ele>
        <time>2022-06-22T18:20:26Z</time>
      </trkpt>
      <trkpt lat="45.10637" lon="5.89508">
        <ele>1766</ele>
        <time>2022-06-22T18:20:45Z</time>
      </trkpt>
      <trkpt lat="45.10646" lon="5.8952">
        <ele>1771</ele>
        <time>2022-06-22T18:21:02Z</time>
      </trkpt>
      <trkpt lat="45.10658" lon="5.89542">
        <ele>1779</ele>
        <time>2022-06-22T18:21:28Z</time>
      </trkpt>
      <trkpt lat="45.10675" lon="5.89555">
        <ele>1786</ele>
        <time>2022-06-22T18:21:54Z</time>
      </trkpt>
      <trkpt lat="45.10686" lon="5.89567">
        <ele>1791</ele>
        <time>2022-06-22T18:22:12Z</time>
      </trkpt>
      <trkpt lat="45.10695" lon="5.89575">
        <ele>1795</ele>
        <time>2022-06-22T18:22:26Z</time>
      </trkpt>
      <trkpt lat="45.1073" lon="5.89594">
        <ele>1806</ele>
        <time>2022-06-22T18:23:16Z</time>
      </trkpt>
      <trkpt lat="45.10756" lon="5.89617">
        <ele>1816</ele>
        <time>2022-06-22T18:23:57Z</time>
      </trkpt>
      <trkpt lat="45.10791" lon="5.89649">
        <ele>1828</ele>
        <time>2022-06-22T18:24:53Z</time>
      </trkpt>
      <trkpt lat="45.10812" lon="5.89651">
        <ele>1832</ele>
        <time>2022-06-22T18:25:21Z</time>
      </trkpt>
      <trkpt lat="45.10819" lon="5.89656">
        <ele>1834</ele>
        <time>2022-06-22T18:25:31Z</time>
      </trkpt>
      <trkpt lat="45.10826" lon="5.89665">
        <ele>1836</ele>
        <time>2022-06-22T18:25:44Z</time>
      </trkpt>
      <trkpt lat="45.10838" lon="5.89675">
        <ele>1840</ele>
        <time>2022-06-22T18:26:02Z</time>
      </trkpt>
      <trkpt lat="45.10844" lon="5.89685">
        <ele>1843</ele>
        <time>2022-06-22T18:26:15Z</time>
      </trkpt>
      <trkpt lat="45.10847" lon="5.89698">
        <ele>1846</ele>
        <time>2022-06-22T18:26:28Z</time>
      </trkpt>
      <trkpt lat="45.10854" lon="5.89715">
        <ele>1851</ele>
        <time>2022-06-22T18:26:46Z</time>
      </trkpt>
      <trkpt lat="45.10854" lon="5.8973">
        <ele>1853</ele>
        <time>2022-06-22T18:27:00Z</time>
      </trkpt>
      <trkpt lat="45.1085" lon="5.89745">
        <ele>1855</ele>
        <time>2022-06-22T18:27:16Z</time>
      </trkpt>
      <trkpt lat="45.1085" lon="5.89754">
        <ele>1857</ele>
        <time>2022-06-22T18:27:24Z</time>
      </trkpt>
      <trkpt lat="45.10855" lon="5.89774">
        <ele>1861</ele>
        <time>2022-06-22T18:27:44Z</time>
      </trkpt>
      <trkpt lat="45.10862" lon="5.89787">
        <ele>1863</ele>
        <time>2022-06-22T18:27:59Z</time>
      </trkpt>
      <trkpt lat="45.10894" lon="5.89833">
        <ele>1870</ele>
        <time>2022-06-22T18:29:00Z</time>
      </trkpt>
      <trkpt lat="45.10901" lon="5.89848">
        <ele>1871</ele>
        <time>2022-06-22T18:29:17Z</time>
      </trkpt>
      <trkpt lat="45.10902" lon="5.89866">
        <ele>1871</ele>
        <time>2022-06-22T18:29:34Z</time>
      </trkpt>
      <trkpt lat="45.10899" lon="5.89873">
        <ele>1871</ele>
        <time>2022-06-22T18:29:42Z</time>
      </trkpt>
      <trkpt lat="45.10902" lon="5.89887">
        <ele>1872</ele>
        <time>2022-06-22T18:29:56Z</time>
      </trkpt>
      <trkpt lat="45.10905" lon="5.8989">
        <ele>1872</ele>
        <time>2022-06-22T18:30:01Z</time>
      </trkpt>
      <trkpt lat="45.10909" lon="5.89889">
        <ele>1872</ele>
        <time>2022-06-22T18:30:06Z</time>
      </trkpt>
      <trkpt lat="45.10913" lon="5.89891">
        <ele>1871</ele>
        <time>2022-06-22T18:30:12Z</time>
      </trkpt>
      <trkpt lat="45.10916" lon="5.89895">
        <ele>1871</ele>
        <time>2022-06-22T18:30:17Z</time>
      </trkpt>
      <trkpt lat="45.10916" lon="5.899">
        <ele>1872</ele>
        <time>2022-06-22T18:30:22Z</time>
      </trkpt>
      <trkpt lat="45.10924" lon="5.89918">
        <ele>1873</ele>
        <time>2022-06-22T18:30:42Z</time>
      </trkpt>
      <trkpt lat="45.10924" lon="5.89925">
        <ele>1874</ele>
        <time>2022-06-22T18:30:48Z</time>
      </trkpt>
      <trkpt lat="45.10926" lon="5.89931">
        <ele>1874</ele>
        <time>2022-06-22T18:30:55Z</time>
      </trkpt>
      <trkpt lat="45.10929" lon="5.89934">
        <ele>1875</ele>
        <time>2022-06-22T18:31:00Z</time>
      </trkpt>
      <trkpt lat="45.10931" lon="5.89945">
        <ele>1876</ele>
        <time>2022-06-22T18:31:10Z</time>
      </trkpt>
      <trkpt lat="45.10936" lon="5.89956">
        <ele>1878</ele>
        <time>2022-06-22T18:31:23Z</time>
      </trkpt>
      <trkpt lat="45.1094" lon="5.89972">
        <ele>1880</ele>
        <time>2022-06-22T18:31:39Z</time>
      </trkpt>
      <trkpt lat="45.10949" lon="5.89983">
        <ele>1881</ele>
        <time>2022-06-22T18:31:54Z</time>
      </trkpt>
      <trkpt lat="45.10958" lon="5.89986">
        <ele>1881</ele>
        <time>2022-06-22T18:32:07Z</time>
      </trkpt>
      <trkpt lat="45.10961" lon="5.89984">
        <ele>1880</ele>
        <time>2022-06-22T18:32:11Z</time>
      </trkpt>
      <trkpt lat="45.10994" lon="5.90008">
        <ele>1880</ele>
        <time>2022-06-22T18:33:01Z</time>
      </trkpt>
      <trkpt lat="45.11009" lon="5.90042">
        <ele>1882</ele>
        <time>2022-06-22T18:33:38Z</time>
      </trkpt>
      <trkpt lat="45.11022" lon="5.90056">
        <ele>1885</ele>
        <time>2022-06-22T18:34:00Z</time>
      </trkpt>
      <trkpt lat="45.11029" lon="5.90058">
        <ele>1886</ele>
        <time>2022-06-22T18:34:10Z</time>
      </trkpt>
      <trkpt lat="45.11041" lon="5.90067">
        <ele>1889</ele>
        <time>2022-06-22T18:34:28Z</time>
      </trkpt>
      <trkpt lat="45.1105" lon="5.90068">
        <ele>1891</ele>
        <time>2022-06-22T18:34:40Z</time>
      </trkpt>
      <trkpt lat="45.11055" lon="5.90078">
        <ele>1892</ele>
        <time>2022-06-22T18:34:52Z</time>
      </trkpt>
      <trkpt lat="45.11057" lon="5.90105">
        <ele>1894</ele>
        <time>2022-06-22T18:35:17Z</time>
      </trkpt>
      <trkpt lat="45.1106" lon="5.9011">
        <ele>1895</ele>
        <time>2022-06-22T18:35:23Z</time>
      </trkpt>
      <trkpt lat="45.11067" lon="5.90112">
        <ele>1897</ele>
        <time>2022-06-22T18:35:33Z</time>
      </trkpt>
      <trkpt lat="45.1107" lon="5.90118">
        <ele>1898</ele>
        <time>2022-06-22T18:35:40Z</time>
      </trkpt>
      <trkpt lat="45.11078" lon="5.90117">
        <ele>1900</ele>
        <time>2022-06-22T18:35:50Z</time>
      </trkpt>
      <trkpt lat="45.11083" lon="5.90113">
        <ele>1901</ele>
        <time>2022-06-22T18:35:58Z</time>
      </trkpt>
      <trkpt lat="45.11086" lon="5.90114">
        <ele>1902</ele>
        <time>2022-06-22T18:36:02Z</time>
      </trkpt>
      <trkpt lat="45.11092" lon="5.90121">
        <ele>1903</ele>
        <time>2022-06-22T18:36:13Z</time>
      </trkpt>
      <trkpt lat="45.11099" lon="5.90116">
        <ele>1905</ele>
        <time>2022-06-22T18:36:23Z</time>
      </trkpt>
      <trkpt lat="45.11101" lon="5.90118">
        <ele>1905</ele>
        <time>2022-06-22T18:36:26Z</time>
      </trkpt>
      <trkpt lat="45.11103" lon="5.90127">
        <ele>1906</ele>
        <time>2022-06-22T18:36:35Z</time>
      </trkpt>
      <trkpt lat="45.11108" lon="5.90132">
        <ele>1908</ele>
        <time>2022-06-22T18:36:43Z</time>
      </trkpt>
      <trkpt lat="45.11114" lon="5.90131">
        <ele>1909</ele>
        <time>2022-06-22T18:36:51Z</time>
      </trkpt>
      <trkpt lat="45.11131" lon="5.90142">
        <ele>1913</ele>
        <time>2022-06-22T18:37:16Z</time>
      </trkpt>
      <trkpt lat="45.11138" lon="5.9014">
        <ele>1914</ele>
        <time>2022-06-22T18:37:26Z</time>
      </trkpt>
      <trkpt lat="45.11151" lon="5.90143">
        <ele>1917</ele>
        <time>2022-06-22T18:37:43Z</time>
      </trkpt>
      <trkpt lat="45.11181" lon="5.90154">
        <ele>1920</ele>
        <time>2022-06-22T18:38:25Z</time>
      </trkpt>
      <trkpt lat="45.11203" lon="5.90178">
        <ele>1921</ele>
        <time>2022-06-22T18:39:02Z</time>
      </trkpt>
      <trkpt lat="45.11219" lon="5.90189">
        <ele>1921</ele>
        <time>2022-06-22T18:39:26Z</time>
      </trkpt>
      <trkpt lat="45.11224" lon="5.90188">
        <ele>1920</ele>
        <time>2022-06-22T18:39:32Z</time>
      </trkpt>
      <trkpt lat="45.11241" lon="5.90174">
        <ele>1918</ele>
        <time>2022-06-22T18:39:59Z</time>
      </trkpt>
      <trkpt lat="45.11254" lon="5.90166">
        <ele>1916</ele>
        <time>2022-06-22T18:40:17Z</time>
      </trkpt>
      <trkpt lat="45.11273" lon="5.90168">
        <ele>1916</ele>
        <time>2022-06-22T18:40:43Z</time>
      </trkpt>
      <trkpt lat="45.11287" lon="5.90166">
        <ele>1916</ele>
        <time>2022-06-22T18:41:02Z</time>
      </trkpt>
      <trkpt lat="45.11289" lon="5.90168">
        <ele>1916</ele>
        <time>2022-06-22T18:41:05Z</time>
      </trkpt>
      <trkpt lat="45.11287" lon="5.90166">
        <ele>1916</ele>
        <time>2022-06-22T18:41:08Z</time>
      </trkpt>
      <trkpt lat="45.11287" lon="5.90134">
        <ele>1917</ele>
        <time>2022-06-22T18:41:38Z</time>
      </trkpt>
      <trkpt lat="45.11296" lon="5.90125">
        <ele>1917</ele>
        <time>2022-06-22T18:41:53Z</time>
      </trkpt>
      <trkpt lat="45.11305" lon="5.9013">
        <ele>1917</ele>
        <time>2022-06-22T18:42:06Z</time>
      </trkpt>
      <trkpt lat="45.1132" lon="5.90119">
        <ele>1918</ele>
        <time>2022-06-22T18:42:29Z</time>
      </trkpt>
      <trkpt lat="45.11353" lon="5.90106">
        <ele>1920</ele>
        <time>2022-06-22T18:43:14Z</time>
      </trkpt>
      <trkpt lat="45.11357" lon="5.90096">
        <ele>1921</ele>
        <time>2022-06-22T18:43:25Z</time>
      </trkpt>
      <trkpt lat="45.11367" lon="5.90091">
        <ele>1921</ele>
        <time>2022-06-22T18:43:39Z</time>
      </trkpt>
      <trkpt lat="45.11373" lon="5.90087">
        <ele>1922</ele>
        <time>2022-06-22T18:43:48Z</time>
      </trkpt>
      <trkpt lat="45.11392" lon="5.90109">
        <ele>1922</ele>
        <time>2022-06-22T18:44:21Z</time>
      </trkpt>
      <trkpt lat="45.11407" lon="5.90119">
        <ele>1922</ele>
        <time>2022-06-22T18:44:43Z</time>
      </trkpt>
      <trkpt lat="45.11419" lon="5.90133">
        <ele>1921</ele>
        <time>2022-06-22T18:45:04Z</time>
      </trkpt>
      <trkpt lat="45.11429" lon="5.90135">
        <ele>1921</ele>
        <time>2022-06-22T18:45:17Z</time>
      </trkpt>
      <trkpt lat="45.11436" lon="5.90132">
        <ele>1921</ele>
        <time>2022-06-22T18:45:27Z</time>
      </trkpt>
      <trkpt lat="45.11447" lon="5.90136">
        <ele>1921</ele>
        <time>2022-06-22T18:45:42Z</time>
      </trkpt>
      <trkpt lat="45.11454" lon="5.9013">
        <ele>1922</ele>
        <time>2022-06-22T18:45:53Z</time>
      </trkpt>
      <trkpt lat="45.11462" lon="5.90129">
        <ele>1922</ele>
        <time>2022-06-22T18:46:04Z</time>
      </trkpt>
      <trkpt lat="45.11465" lon="5.90131">
        <ele>1922</ele>
        <time>2022-06-22T18:46:08Z</time>
      </trkpt>
      <trkpt lat="45.11468" lon="5.90138">
        <ele>1921</ele>
        <time>2022-06-22T18:46:16Z</time>
      </trkpt>
      <trkpt lat="45.11488" lon="5.90153">
        <ele>1919</ele>
        <time>2022-06-22T18:46:46Z</time>
      </trkpt>
      <trkpt lat="45.11495" lon="5.90162">
        <ele>1917</ele>
        <time>2022-06-22T18:46:59Z</time>
      </trkpt>
      <trkpt lat="45.11499" lon="5.90164">
        <ele>1917</ele>
        <time>2022-06-22T18:47:04Z</time>
      </trkpt>
      <trkpt lat="45.11511" lon="5.90183">
        <ele>1918</ele>
        <time>2022-06-22T18:47:28Z</time>
      </trkpt>
      <trkpt lat="45.1152" lon="5.90194">
        <ele>1920</ele>
        <time>2022-06-22T18:47:44Z</time>
      </trkpt>
      <trkpt lat="45.11521" lon="5.90196">
        <ele>1920</ele>
        <time>2022-06-22T18:47:46Z</time>
      </trkpt>
      <trkpt lat="45.11521" lon="5.90201">
        <ele>1920</ele>
        <time>2022-06-22T18:47:51Z</time>
      </trkpt>
      <trkpt lat="45.11517" lon="5.90213">
        <ele>1921</ele>
        <time>2022-06-22T18:48:04Z</time>
      </trkpt>
      <trkpt lat="45.11507" lon="5.90221">
        <ele>1922</ele>
        <time>2022-06-22T18:48:19Z</time>
      </trkpt>
      <trkpt lat="45.11502" lon="5.90222">
        <ele>1921</ele>
        <time>2022-06-22T18:48:26Z</time>
      </trkpt>
      <trkpt lat="45.11483" lon="5.90221">
        <ele>1922</ele>
        <time>2022-06-22T18:48:51Z</time>
      </trkpt>
      <trkpt lat="45.11462" lon="5.90215">
        <ele>1923</ele>
        <time>2022-06-22T18:49:20Z</time>
      </trkpt>
      <trkpt lat="45.11448" lon="5.90202">
        <ele>1922</ele>
        <time>2022-06-22T18:49:42Z</time>
      </trkpt>
      <trkpt lat="45.11437" lon="5.90197">
        <ele>1922</ele>
        <time>2022-06-22T18:49:57Z</time>
      </trkpt>
      <trkpt lat="45.11418" lon="5.9021">
        <ele>1924</ele>
        <time>2022-06-22T18:50:26Z</time>
      </trkpt>
      <trkpt lat="45.11405" lon="5.90211">
        <ele>1924</ele>
        <time>2022-06-22T18:50:43Z</time>
      </trkpt>
      <trkpt lat="45.11385" lon="5.90227">
        <ele>1925</ele>
        <time>2022-06-22T18:51:14Z</time>
      </trkpt>
      <trkpt lat="45.11368" lon="5.90232">
        <ele>1925</ele>
        <time>2022-06-22T18:51:37Z</time>
      </trkpt>
      <trkpt lat="45.11364" lon="5.90229">
        <ele>1924</ele>
        <time>2022-06-22T18:51:43Z</time>
      </trkpt>
      <trkpt lat="45.11351" lon="5.90233">
        <ele>1924</ele>
        <time>2022-06-22T18:52:01Z</time>
      </trkpt>
      <trkpt lat="45.11322" lon="5.90208">
        <ele>1920</ele>
        <time>2022-06-22T18:52:46Z</time>
      </trkpt>
      <trkpt lat="45.11313" lon="5.90195">
        <ele>1919</ele>
        <time>2022-06-22T18:53:03Z</time>
      </trkpt>
      <trkpt lat="45.11306" lon="5.90189">
        <ele>1918</ele>
        <time>2022-06-22T18:53:14Z</time>
      </trkpt>
      <trkpt lat="45.11296" lon="5.9018">
        <ele>1917</ele>
        <time>2022-06-22T18:53:30Z</time>
      </trkpt>
      <trkpt lat="45.11293" lon="5.90172">
        <ele>1916</ele>
        <time>2022-06-22T18:53:38Z</time>
      </trkpt>
      <trkpt lat="45.11287" lon="5.90166">
        <ele>1916</ele>
        <time>2022-06-22T18:53:48Z</time>
      </trkpt>
      <trkpt lat="45.11287" lon="5.90134">
        <ele>1917</ele>
        <time>2022-06-22T18:54:18Z</time>
      </trkpt>
      <trkpt lat="45.11279" lon="5.90113">
        <ele>1918</ele>
        <time>2022-06-22T18:54:41Z</time>
      </trkpt>
      <trkpt lat="45.11267" lon="5.90095">
        <ele>1918</ele>
        <time>2022-06-22T18:55:04Z</time>
      </trkpt>
      <trkpt lat="45.11253" lon="5.90057">
        <ele>1924</ele>
        <time>2022-06-22T18:55:44Z</time>
      </trkpt>
      <trkpt lat="45.11245" lon="5.90042">
        <ele>1926</ele>
        <time>2022-06-22T18:56:02Z</time>
      </trkpt>
      <trkpt lat="45.11237" lon="5.90024">
        <ele>1928</ele>
        <time>2022-06-22T18:56:22Z</time>
      </trkpt>
      <trkpt lat="45.11193" lon="5.90001">
        <ele>1921</ele>
        <time>2022-06-22T18:57:25Z</time>
      </trkpt>
      <trkpt lat="45.11173" lon="5.89966">
        <ele>1924</ele>
        <time>2022-06-22T18:58:07Z</time>
      </trkpt>
      <trkpt lat="45.11162" lon="5.8995">
        <ele>1924</ele>
        <time>2022-06-22T18:58:28Z</time>
      </trkpt>
      <trkpt lat="45.11138" lon="5.89935">
        <ele>1919</ele>
        <time>2022-06-22T18:59:03Z</time>
      </trkpt>
      <trkpt lat="45.11125" lon="5.89923">
        <ele>1916</ele>
        <time>2022-06-22T18:59:24Z</time>
      </trkpt>
      <trkpt lat="45.11115" lon="5.89908">
        <ele>1914</ele>
        <time>2022-06-22T18:59:43Z</time>
      </trkpt>
      <trkpt lat="45.11112" lon="5.89892">
        <ele>1915</ele>
        <time>2022-06-22T18:59:59Z</time>
      </trkpt>
      <trkpt lat="45.11111" lon="5.89877">
        <ele>1916</ele>
        <time>2022-06-22T19:00:13Z</time>
      </trkpt>
      <trkpt lat="45.11114" lon="5.89866">
        <ele>1919</ele>
        <time>2022-06-22T19:00:24Z</time>
      </trkpt>
      <trkpt lat="45.11112" lon="5.89853">
        <ele>1919</ele>
        <time>2022-06-22T19:00:37Z</time>
      </trkpt>
      <trkpt lat="45.11108" lon="5.89828">
        <ele>1919</ele>
        <time>2022-06-22T19:01:01Z</time>
      </trkpt>
      <trkpt lat="45.11111" lon="5.89818">
        <ele>1921</ele>
        <time>2022-06-22T19:01:11Z</time>
      </trkpt>
      <trkpt lat="45.1111" lon="5.89791">
        <ele>1922</ele>
        <time>2022-06-22T19:01:37Z</time>
      </trkpt>
      <trkpt lat="45.11111" lon="5.89777">
        <ele>1923</ele>
        <time>2022-06-22T19:01:50Z</time>
      </trkpt>
      <trkpt lat="45.11116" lon="5.89767">
        <ele>1926</ele>
        <time>2022-06-22T19:02:01Z</time>
      </trkpt>
      <trkpt lat="45.11118" lon="5.89757">
        <ele>1927</ele>
        <time>2022-06-22T19:02:11Z</time>
      </trkpt>
      <trkpt lat="45.11123" lon="5.89749">
        <ele>1930</ele>
        <time>2022-06-22T19:02:21Z</time>
      </trkpt>
      <trkpt lat="45.11123" lon="5.89729">
        <ele>1930</ele>
        <time>2022-06-22T19:02:40Z</time>
      </trkpt>
      <trkpt lat="45.11134" lon="5.89676">
        <ele>1933</ele>
        <time>2022-06-22T19:03:32Z</time>
      </trkpt>
      <trkpt lat="45.11138" lon="5.89648">
        <ele>1935</ele>
        <time>2022-06-22T19:03:59Z</time>
      </trkpt>
      <trkpt lat="45.11135" lon="5.89622">
        <ele>1934</ele>
        <time>2022-06-22T19:04:24Z</time>
      </trkpt>
      <trkpt lat="45.11123" lon="5.89595">
        <ele>1930</ele>
        <time>2022-06-22T19:04:54Z</time>
      </trkpt>
      <trkpt lat="45.11128" lon="5.89584">
        <ele>1933</ele>
        <time>2022-06-22T19:05:06Z</time>
      </trkpt>
      <trkpt lat="45.11141" lon="5.89562">
        <ele>1937</ele>
        <time>2022-06-22T19:05:33Z</time>
      </trkpt>
      <trkpt lat="45.11147" lon="5.89531">
        <ele>1939</ele>
        <time>2022-06-22T19:06:03Z</time>
      </trkpt>
      <trkpt lat="45.11147" lon="5.8952">
        <ele>1939</ele>
        <time>2022-06-22T19:06:14Z</time>
      </trkpt>
      <trkpt lat="45.11152" lon="5.89515">
        <ele>1941</ele>
        <time>2022-06-22T19:06:22Z</time>
      </trkpt>
      <trkpt lat="45.11154" lon="5.89505">
        <ele>1942</ele>
        <time>2022-06-22T19:06:32Z</time>
      </trkpt>
      <trkpt lat="45.11154" lon="5.89501">
        <ele>1942</ele>
        <time>2022-06-22T19:06:36Z</time>
      </trkpt>
      <trkpt lat="45.11159" lon="5.89454">
        <ele>1940</ele>
        <time>2022-06-22T19:07:20Z</time>
      </trkpt>
      <trkpt lat="45.11164" lon="5.89444">
        <ele>1941</ele>
        <time>2022-06-22T19:07:32Z</time>
      </trkpt>
      <trkpt lat="45.11175" lon="5.89384">
        <ele>1937</ele>
        <time>2022-06-22T19:08:30Z</time>
      </trkpt>
      <trkpt lat="45.11188" lon="5.89341">
        <ele>1935</ele>
        <time>2022-06-22T19:09:14Z</time>
      </trkpt>
      <trkpt lat="45.11204" lon="5.89315">
        <ele>1938</ele>
        <time>2022-06-22T19:09:47Z</time>
      </trkpt>
      <trkpt lat="45.11206" lon="5.89308">
        <ele>1938</ele>
        <time>2022-06-22T19:09:54Z</time>
      </trkpt>
      <trkpt lat="45.11206" lon="5.89294">
        <ele>1938</ele>
        <time>2022-06-22T19:10:07Z</time>
      </trkpt>
      <trkpt lat="45.11214" lon="5.89273">
        <ele>1939</ele>
        <time>2022-06-22T19:10:30Z</time>
      </trkpt>
      <trkpt lat="45.11221" lon="5.89262">
        <ele>1941</ele>
        <time>2022-06-22T19:10:43Z</time>
      </trkpt>
      <trkpt lat="45.11218" lon="5.89253">
        <ele>1940</ele>
        <time>2022-06-22T19:10:53Z</time>
      </trkpt>
      <trkpt lat="45.1121" lon="5.89248">
        <ele>1937</ele>
        <time>2022-06-22T19:11:05Z</time>
      </trkpt>
      <trkpt lat="45.11206" lon="5.89239">
        <ele>1936</ele>
        <time>2022-06-22T19:11:15Z</time>
      </trkpt>
      <trkpt lat="45.11207" lon="5.89235">
        <ele>1936</ele>
        <time>2022-06-22T19:11:19Z</time>
      </trkpt>
      <trkpt lat="45.1126" lon="5.89295">
        <ele>1954</ele>
        <time>2022-06-22T19:12:49Z</time>
      </trkpt>
      <trkpt lat="45.11322" lon="5.89255">
        <ele>1969</ele>
        <time>2022-06-22T19:14:20Z</time>
      </trkpt>
      <trkpt lat="45.11511" lon="5.89411">
        <ele>2023</ele>
        <time>2022-06-22T19:19:12Z</time>
      </trkpt>
      <trkpt lat="45.1151" lon="5.89364">
        <ele>2020</ele>
        <time>2022-06-22T19:19:56Z</time>
      </trkpt>
      <trkpt lat="45.11508" lon="5.8934">
        <ele>2017</ele>
        <time>2022-06-22T19:20:19Z</time>
      </trkpt>
      <trkpt lat="45.11514" lon="5.89259">
        <ele>2013</ele>
        <time>2022-06-22T19:21:36Z</time>
      </trkpt>
      <trkpt lat="45.11524" lon="5.8923">
        <ele>2012</ele>
        <time>2022-06-22T19:22:06Z</time>
      </trkpt>
      <trkpt lat="45.11531" lon="5.89218">
        <ele>2011</ele>
        <time>2022-06-22T19:22:21Z</time>
      </trkpt>
      <trkpt lat="45.11542" lon="5.89208">
        <ele>2010</ele>
        <time>2022-06-22T19:22:38Z</time>
      </trkpt>
      <trkpt lat="45.11556" lon="5.89203">
        <ele>2010</ele>
        <time>2022-06-22T19:22:57Z</time>
      </trkpt>
      <trkpt lat="45.11575" lon="5.89199">
        <ele>2011</ele>
        <time>2022-06-22T19:23:23Z</time>
      </trkpt>
      <trkpt lat="45.11585" lon="5.89191">
        <ele>2010</ele>
        <time>2022-06-22T19:23:38Z</time>
      </trkpt>
      <trkpt lat="45.11593" lon="5.89179">
        <ele>2008</ele>
        <time>2022-06-22T19:23:54Z</time>
      </trkpt>
      <trkpt lat="45.11595" lon="5.89168">
        <ele>2006</ele>
        <time>2022-06-22T19:24:05Z</time>
      </trkpt>
      <trkpt lat="45.11595" lon="5.89156">
        <ele>2004</ele>
        <time>2022-06-22T19:24:16Z</time>
      </trkpt>
      <trkpt lat="45.11588" lon="5.89115">
        <ele>1997</ele>
        <time>2022-06-22T19:24:56Z</time>
      </trkpt>
      <trkpt lat="45.11589" lon="5.89088">
        <ele>1992</ele>
        <time>2022-06-22T19:25:21Z</time>
      </trkpt>
      <trkpt lat="45.11577" lon="5.89029">
        <ele>1982</ele>
        <time>2022-06-22T19:26:19Z</time>
      </trkpt>
      <trkpt lat="45.11578" lon="5.88996">
        <ele>1976</ele>
        <time>2022-06-22T19:26:50Z</time>
      </trkpt>
      <trkpt lat="45.11584" lon="5.88977">
        <ele>1973</ele>
        <time>2022-06-22T19:27:10Z</time>
      </trkpt>
      <trkpt lat="45.11591" lon="5.88968">
        <ele>1972</ele>
        <time>2022-06-22T19:27:22Z</time>
      </trkpt>
      <trkpt lat="45.11594" lon="5.88953">
        <ele>1969</ele>
        <time>2022-06-22T19:27:37Z</time>
      </trkpt>
      <trkpt lat="45.11593" lon="5.8894">
        <ele>1967</ele>
        <time>2022-06-22T19:27:49Z</time>
      </trkpt>
      <trkpt lat="45.11588" lon="5.88925">
        <ele>1964</ele>
        <time>2022-06-22T19:28:05Z</time>
      </trkpt>
      <trkpt lat="45.11578" lon="5.88853">
        <ele>1952</ele>
        <time>2022-06-22T19:29:14Z</time>
      </trkpt>
      <trkpt lat="45.11566" lon="5.88827">
        <ele>1948</ele>
        <time>2022-06-22T19:29:43Z</time>
      </trkpt>
      <trkpt lat="45.11561" lon="5.88809">
        <ele>1945</ele>
        <time>2022-06-22T19:30:01Z</time>
      </trkpt>
      <trkpt lat="45.11555" lon="5.88783">
        <ele>1941</ele>
        <time>2022-06-22T19:30:27Z</time>
      </trkpt>
      <trkpt lat="45.11541" lon="5.88761">
        <ele>1937</ele>
        <time>2022-06-22T19:30:55Z</time>
      </trkpt>
      <trkpt lat="45.11537" lon="5.88746">
        <ele>1934</ele>
        <time>2022-06-22T19:31:10Z</time>
      </trkpt>
      <trkpt lat="45.11521" lon="5.88736">
        <ele>1931</ele>
        <time>2022-06-22T19:31:33Z</time>
      </trkpt>
      <trkpt lat="45.11483" lon="5.88724">
        <ele>1925</ele>
        <time>2022-06-22T19:32:25Z</time>
      </trkpt>
      <trkpt lat="45.1145" lon="5.88707">
        <ele>1918</ele>
        <time>2022-06-22T19:33:12Z</time>
      </trkpt>
      <trkpt lat="45.11424" lon="5.88679">
        <ele>1911</ele>
        <time>2022-06-22T19:33:56Z</time>
      </trkpt>
      <trkpt lat="45.1141" lon="5.88661">
        <ele>1908</ele>
        <time>2022-06-22T19:34:21Z</time>
      </trkpt>
      <trkpt lat="45.11397" lon="5.88627">
        <ele>1905</ele>
        <time>2022-06-22T19:34:58Z</time>
      </trkpt>
      <trkpt lat="45.11379" lon="5.88577">
        <ele>1899</ele>
        <time>2022-06-22T19:35:50Z</time>
      </trkpt>
      <trkpt lat="45.11364" lon="5.88556">
        <ele>1896</ele>
        <time>2022-06-22T19:36:18Z</time>
      </trkpt>
      <trkpt lat="45.11359" lon="5.88543">
        <ele>1894</ele>
        <time>2022-06-22T19:36:32Z</time>
      </trkpt>
      <trkpt lat="45.11355" lon="5.88514">
        <ele>1891</ele>
        <time>2022-06-22T19:37:00Z</time>
      </trkpt>
      <trkpt lat="45.11352" lon="5.885">
        <ele>1889</ele>
        <time>2022-06-22T19:37:14Z</time>
      </trkpt>
      <trkpt lat="45.11341" lon="5.88467">
        <ele>1884</ele>
        <time>2022-06-22T19:37:48Z</time>
      </trkpt>
      <trkpt lat="45.11333" lon="5.88442">
        <ele>1881</ele>
        <time>2022-06-22T19:38:14Z</time>
      </trkpt>
      <trkpt lat="45.11296" lon="5.88392">
        <ele>1872</ele>
        <time>2022-06-22T19:39:22Z</time>
      </trkpt>
      <trkpt lat="45.11288" lon="5.88385">
        <ele>1871</ele>
        <time>2022-06-22T19:39:35Z</time>
      </trkpt>
      <trkpt lat="45.11276" lon="5.88384">
        <ele>1871</ele>
        <time>2022-06-22T19:39:51Z</time>
      </trkpt>
      <trkpt lat="45.1124" lon="5.88398">
        <ele>1869</ele>
        <time>2022-06-22T19:40:41Z</time>
      </trkpt>
      <trkpt lat="45.11222" lon="5.88402">
        <ele>1866</ele>
        <time>2022-06-22T19:41:05Z</time>
      </trkpt>
      <trkpt lat="45.11203" lon="5.88411">
        <ele>1864</ele>
        <time>2022-06-22T19:41:32Z</time>
      </trkpt>
      <trkpt lat="45.11174" lon="5.88412">
        <ele>1859</ele>
        <time>2022-06-22T19:42:11Z</time>
      </trkpt>
      <trkpt lat="45.11161" lon="5.88409">
        <ele>1856</ele>
        <time>2022-06-22T19:42:28Z</time>
      </trkpt>
      <trkpt lat="45.11149" lon="5.88399">
        <ele>1854</ele>
        <time>2022-06-22T19:42:47Z</time>
      </trkpt>
      <trkpt lat="45.11118" lon="5.88373">
        <ele>1846</ele>
        <time>2022-06-22T19:43:35Z</time>
      </trkpt>
      <trkpt lat="45.11106" lon="5.88365">
        <ele>1843</ele>
        <time>2022-06-22T19:43:53Z</time>
      </trkpt>
      <trkpt lat="45.11106" lon="5.88356">
        <ele>1842</ele>
        <time>2022-06-22T19:44:01Z</time>
      </trkpt>
      <trkpt lat="45.11104" lon="5.88346">
        <ele>1841</ele>
        <time>2022-06-22T19:44:11Z</time>
      </trkpt>
      <trkpt lat="45.11101" lon="5.88342">
        <ele>1840</ele>
        <time>2022-06-22T19:44:16Z</time>
      </trkpt>
      <trkpt lat="45.11091" lon="5.8829">
        <ele>1831</ele>
        <time>2022-06-22T19:45:07Z</time>
      </trkpt>
      <trkpt lat="45.11089" lon="5.88262">
        <ele>1827</ele>
        <time>2022-06-22T19:45:34Z</time>
      </trkpt>
      <trkpt lat="45.11077" lon="5.8828">
        <ele>1829</ele>
        <time>2022-06-22T19:45:57Z</time>
      </trkpt>
      <trkpt lat="45.11085" lon="5.88256">
        <ele>1826</ele>
        <time>2022-06-22T19:46:22Z</time>
      </trkpt>
      <trkpt lat="45.11089" lon="5.88229">
        <ele>1824</ele>
        <time>2022-06-22T19:46:48Z</time>
      </trkpt>
      <trkpt lat="45.11111" lon="5.88207">
        <ele>1824</ele>
        <time>2022-06-22T19:47:24Z</time>
      </trkpt>
      <trkpt lat="45.1114" lon="5.88172">
        <ele>1819</ele>
        <time>2022-06-22T19:48:15Z</time>
      </trkpt>
      <trkpt lat="45.11147" lon="5.88158">
        <ele>1817</ele>
        <time>2022-06-22T19:48:31Z</time>
      </trkpt>
      <trkpt lat="45.11148" lon="5.8814">
        <ele>1814</ele>
        <time>2022-06-22T19:48:48Z</time>
      </trkpt>
      <trkpt lat="45.11146" lon="5.88109">
        <ele>1809</ele>
        <time>2022-06-22T19:49:17Z</time>
      </trkpt>
      <trkpt lat="45.11142" lon="5.88094">
        <ele>1806</ele>
        <time>2022-06-22T19:49:32Z</time>
      </trkpt>
      <trkpt lat="45.11142" lon="5.88085">
        <ele>1805</ele>
        <time>2022-06-22T19:49:41Z</time>
      </trkpt>
      <trkpt lat="45.11145" lon="5.88077">
        <ele>1803</ele>
        <time>2022-06-22T19:49:49Z</time>
      </trkpt>
      <trkpt lat="45.11149" lon="5.88072">
        <ele>1802</ele>
        <time>2022-06-22T19:49:56Z</time>
      </trkpt>
      <trkpt lat="45.1115" lon="5.88064">
        <ele>1801</ele>
        <time>2022-06-22T19:50:04Z</time>
      </trkpt>
      <trkpt lat="45.11158" lon="5.88055">
        <ele>1800</ele>
        <time>2022-06-22T19:50:18Z</time>
      </trkpt>
      <trkpt lat="45.11193" lon="5.87983">
        <ele>1791</ele>
        <time>2022-06-22T19:51:40Z</time>
      </trkpt>
      <trkpt lat="45.11206" lon="5.87952">
        <ele>1789</ele>
        <time>2022-06-22T19:52:14Z</time>
      </trkpt>
      <trkpt lat="45.11225" lon="5.87918">
        <ele>1787</ele>
        <time>2022-06-22T19:52:55Z</time>
      </trkpt>
      <trkpt lat="45.11225" lon="5.8787">
        <ele>1783</ele>
        <time>2022-06-22T19:53:40Z</time>
      </trkpt>
      <trkpt lat="45.11225" lon="5.87863">
        <ele>1783</ele>
        <time>2022-06-22T19:53:47Z</time>
      </trkpt>
      <trkpt lat="45.11185" lon="5.87879">
        <ele>1781</ele>
        <time>2022-06-22T19:54:42Z</time>
      </trkpt>
      <trkpt lat="45.11171" lon="5.87882">
        <ele>1780</ele>
        <time>2022-06-22T19:55:01Z</time>
      </trkpt>
      <trkpt lat="45.11163" lon="5.87878">
        <ele>1780</ele>
        <time>2022-06-22T19:55:12Z</time>
      </trkpt>
      <trkpt lat="45.11156" lon="5.87873">
        <ele>1779</ele>
        <time>2022-06-22T19:55:23Z</time>
      </trkpt>
      <trkpt lat="45.11152" lon="5.87862">
        <ele>1778</ele>
        <time>2022-06-22T19:55:34Z</time>
      </trkpt>
      <trkpt lat="45.11154" lon="5.87834">
        <ele>1775</ele>
        <time>2022-06-22T19:56:01Z</time>
      </trkpt>
      <trkpt lat="45.11162" lon="5.87806">
        <ele>1773</ele>
        <time>2022-06-22T19:56:29Z</time>
      </trkpt>
      <trkpt lat="45.11179" lon="5.87786">
        <ele>1772</ele>
        <time>2022-06-22T19:56:59Z</time>
      </trkpt>
      <trkpt lat="45.11174" lon="5.87776">
        <ele>1771</ele>
        <time>2022-06-22T19:57:10Z</time>
      </trkpt>
      <trkpt lat="45.11167" lon="5.87772">
        <ele>1770</ele>
        <time>2022-06-22T19:57:20Z</time>
      </trkpt>
      <trkpt lat="45.11165" lon="5.87769">
        <ele>1770</ele>
        <time>2022-06-22T19:57:24Z</time>
      </trkpt>
      <trkpt lat="45.11143" lon="5.87757">
        <ele>1767</ele>
        <time>2022-06-22T19:57:56Z</time>
      </trkpt>
      <trkpt lat="45.11131" lon="5.87746">
        <ele>1764</ele>
        <time>2022-06-22T19:58:15Z</time>
      </trkpt>
      <trkpt lat="45.11123" lon="5.87724">
        <ele>1761</ele>
        <time>2022-06-22T19:58:38Z</time>
      </trkpt>
      <trkpt lat="45.11125" lon="5.87715">
        <ele>1760</ele>
        <time>2022-06-22T19:58:47Z</time>
      </trkpt>
      <trkpt lat="45.11122" lon="5.87705">
        <ele>1758</ele>
        <time>2022-06-22T19:58:57Z</time>
      </trkpt>
      <trkpt lat="45.11124" lon="5.87704">
        <ele>1758</ele>
        <time>2022-06-22T19:59:00Z</time>
      </trkpt>
      <trkpt lat="45.11125" lon="5.87694">
        <ele>1757</ele>
        <time>2022-06-22T19:59:10Z</time>
      </trkpt>
      <trkpt lat="45.11129" lon="5.87687">
        <ele>1756</ele>
        <time>2022-06-22T19:59:18Z</time>
      </trkpt>
      <trkpt lat="45.11126" lon="5.87683">
        <ele>1755</ele>
        <time>2022-06-22T19:59:24Z</time>
      </trkpt>
      <trkpt lat="45.11125" lon="5.87676">
        <ele>1754</ele>
        <time>2022-06-22T19:59:30Z</time>
      </trkpt>
      <trkpt lat="45.11122" lon="5.87675">
        <ele>1754</ele>
        <time>2022-06-22T19:59:34Z</time>
      </trkpt>
      <trkpt lat="45.11123" lon="5.87669">
        <ele>1753</ele>
        <time>2022-06-22T19:59:40Z</time>
      </trkpt>
      <trkpt lat="45.11122" lon="5.87665">
        <ele>1753</ele>
        <time>2022-06-22T19:59:44Z</time>
      </trkpt>
      <trkpt lat="45.11123" lon="5.87657">
        <ele>1751</ele>
        <time>2022-06-22T19:59:52Z</time>
      </trkpt>
      <trkpt lat="45.1111" lon="5.87646">
        <ele>1749</ele>
        <time>2022-06-22T20:00:12Z</time>
      </trkpt>
      <trkpt lat="45.11107" lon="5.87638">
        <ele>1748</ele>
        <time>2022-06-22T20:00:21Z</time>
      </trkpt>
      <trkpt lat="45.11108" lon="5.87593">
        <ele>1742</ele>
        <time>2022-06-22T20:01:03Z</time>
      </trkpt>
      <trkpt lat="45.11088" lon="5.87592">
        <ele>1742</ele>
        <time>2022-06-22T20:01:30Z</time>
      </trkpt>
      <trkpt lat="45.11064" lon="5.87587">
        <ele>1743</ele>
        <time>2022-06-22T20:02:02Z</time>
      </trkpt>
      <trkpt lat="45.11044" lon="5.87578">
        <ele>1743</ele>
        <time>2022-06-22T20:02:30Z</time>
      </trkpt>
      <trkpt lat="45.11026" lon="5.87572">
        <ele>1743</ele>
        <time>2022-06-22T20:02:55Z</time>
      </trkpt>
      <trkpt lat="45.11017" lon="5.87576">
        <ele>1745</ele>
        <time>2022-06-22T20:03:07Z</time>
      </trkpt>
      <trkpt lat="45.10867" lon="5.87563">
        <ele>1744</ele>
        <time>2022-06-22T20:06:28Z</time>
      </trkpt>
      <trkpt lat="45.10853" lon="5.87555">
        <ele>1743</ele>
        <time>2022-06-22T20:06:48Z</time>
      </trkpt>
      <trkpt lat="45.10765" lon="5.87547">
        <ele>1742</ele>
        <time>2022-06-22T20:08:46Z</time>
      </trkpt>
      <trkpt lat="45.10758" lon="5.87542">
        <ele>1742</ele>
        <time>2022-06-22T20:08:56Z</time>
      </trkpt>
      <trkpt lat="45.10754" lon="5.87533">
        <ele>1740</ele>
        <time>2022-06-22T20:09:06Z</time>
      </trkpt>
      <trkpt lat="45.10754" lon="5.87531">
        <ele>1740</ele>
        <time>2022-06-22T20:09:08Z</time>
      </trkpt>
      <trkpt lat="45.10754" lon="5.87533">
        <ele>1740</ele>
        <time>2022-06-22T20:09:10Z</time>
      </trkpt>
      <trkpt lat="45.10749" lon="5.87542">
        <ele>1742</ele>
        <time>2022-06-22T20:09:21Z</time>
      </trkpt>
      <trkpt lat="45.1065" lon="5.87553">
        <ele>1739</ele>
        <time>2022-06-22T20:11:33Z</time>
      </trkpt>
      <trkpt lat="45.10552" lon="5.87573">
        <ele>1733</ele>
        <time>2022-06-22T20:13:45Z</time>
      </trkpt>
      <trkpt lat="45.10517" lon="5.87588">
        <ele>1732</ele>
        <time>2022-06-22T20:14:34Z</time>
      </trkpt>
      <trkpt lat="45.10512" lon="5.87595">
        <ele>1732</ele>
        <time>2022-06-22T20:14:44Z</time>
      </trkpt>
      <trkpt lat="45.10484" lon="5.87649">
        <ele>1733</ele>
        <time>2022-06-22T20:15:47Z</time>
      </trkpt>
      <trkpt lat="45.10462" lon="5.87696">
        <ele>1735</ele>
        <time>2022-06-22T20:16:40Z</time>
      </trkpt>
    </trkseg>
  </trk>
</gpx>